sensor_id;sensor_type;location;lat;lon;timestamp;P1;durP1;ratioP1;P2;durP2;ratioP2
8421;SDS011;4248;48.196;10.924;2023-09-07T00:01:05;9.20;;;5.00;;
8421;SDS011;4248;48.196;10.924;2023-09-07T00:03:31;6.20;;;4.10;;
8421;SDS011;4248;48.196;10.924;2023-09-07T00:05:57;7.90;;;5.40;;
8421;SDS011;4248;48.196;10.924;2023-09-07T00:08:23;7.60;;;4.93;;
8421;SDS011;4248;48.196;10.924;2023-09-07T00:10:50;16.00;;;5.47;;
8421;SDS011;4248;48.196;10.924;2023-09-07T00:13:16;7.30;;;5.03;;
8421;SDS011;4248;48.196;10.924;2023-09-07T00:15:42;8.80;;;5.00;;
8421;SDS011;4248;48.196;10.924;2023-09-07T00:18:07;7.40;;;4.53;;
8421;SDS011;4248;48.196;10.924;2023-09-07T00:20:33;7.97;;;5.40;;
8421;SDS011;4248;48.196;10.924;2023-09-07T00:22:59;6.53;;;4.60;;
8421;SDS011;4248;48.196;10.924;2023-09-07T00:25:25;8.70;;;4.60;;
8421;SDS011;4248;48.196;10.924;2023-09-07T00:27:51;10.90;;;5.23;;
8421;SDS011;4248;48.196;10.924;2023-09-07T00:30:17;9.23;;;4.53;;
8421;SDS011;4248;48.196;10.924;2023-09-07T00:32:42;8.57;;;5.10;;
8421;SDS011;4248;48.196;10.924;2023-09-07T00:35:08;8.40;;;4.83;;
8421;SDS011;4248;48.196;10.924;2023-09-07T00:37:34;17.00;;;4.93;;
8421;SDS011;4248;48.196;10.924;2023-09-07T00:40:00;6.67;;;4.67;;
8421;SDS011;4248;48.196;10.924;2023-09-07T00:42:25;7.50;;;4.93;;
8421;SDS011;4248;48.196;10.924;2023-09-07T00:44:51;7.70;;;5.03;;
8421;SDS011;4248;48.196;10.924;2023-09-07T00:47:16;6.93;;;4.50;;
8421;SDS011;4248;48.196;10.924;2023-09-07T00:49:43;6.03;;;3.93;;
8421;SDS011;4248;48.196;10.924;2023-09-07T00:52:09;8.63;;;4.83;;
8421;SDS011;4248;48.196;10.924;2023-09-07T00:54:35;6.63;;;4.43;;
8421;SDS011;4248;48.196;10.924;2023-09-07T00:57:03;7.67;;;4.80;;
8421;SDS011;4248;48.196;10.924;2023-09-07T00:59:29;7.77;;;4.87;;
8421;SDS011;4248;48.196;10.924;2023-09-07T01:01:56;9.90;;;5.03;;
8421;SDS011;4248;48.196;10.924;2023-09-07T01:04:22;11.63;;;5.13;;
8421;SDS011;4248;48.196;10.924;2023-09-07T01:06:51;8.77;;;4.63;;
8421;SDS011;4248;48.196;10.924;2023-09-07T01:09:23;7.70;;;4.53;;
8421;SDS011;4248;48.196;10.924;2023-09-07T01:11:51;6.07;;;4.50;;
8421;SDS011;4248;48.196;10.924;2023-09-07T01:14:17;5.80;;;4.37;;
8421;SDS011;4248;48.196;10.924;2023-09-07T01:16:43;10.60;;;5.50;;
8421;SDS011;4248;48.196;10.924;2023-09-07T01:19:09;10.17;;;4.80;;
8421;SDS011;4248;48.196;10.924;2023-09-07T01:21:36;8.43;;;5.00;;
8421;SDS011;4248;48.196;10.924;2023-09-07T01:24:09;7.30;;;4.67;;
8421;SDS011;4248;48.196;10.924;2023-09-07T01:26:36;7.67;;;5.43;;
8421;SDS011;4248;48.196;10.924;2023-09-07T01:29:05;7.03;;;4.80;;
8421;SDS011;4248;48.196;10.924;2023-09-07T01:31:38;6.57;;;4.67;;
8421;SDS011;4248;48.196;10.924;2023-09-07T01:34:04;7.73;;;4.80;;
8421;SDS011;4248;48.196;10.924;2023-09-07T01:36:31;8.67;;;4.93;;
8421;SDS011;4248;48.196;10.924;2023-09-07T01:38:57;9.10;;;4.87;;
8421;SDS011;4248;48.196;10.924;2023-09-07T01:41:23;7.37;;;5.17;;
8421;SDS011;4248;48.196;10.924;2023-09-07T01:43:48;7.53;;;5.07;;
8421;SDS011;4248;48.196;10.924;2023-09-07T01:46:14;7.40;;;5.43;;
8421;SDS011;4248;48.196;10.924;2023-09-07T01:48:39;6.97;;;5.10;;
8421;SDS011;4248;48.196;10.924;2023-09-07T01:51:07;7.47;;;5.33;;
8421;SDS011;4248;48.196;10.924;2023-09-07T01:53:32;7.97;;;5.50;;
8421;SDS011;4248;48.196;10.924;2023-09-07T01:55:58;16.93;;;5.77;;
8421;SDS011;4248;48.196;10.924;2023-09-07T01:58:24;19.77;;;5.57;;
8421;SDS011;4248;48.196;10.924;2023-09-07T02:00:50;12.17;;;5.90;;
8421;SDS011;4248;48.196;10.924;2023-09-07T02:03:17;7.33;;;5.50;;
8421;SDS011;4248;48.196;10.924;2023-09-07T02:05:43;8.60;;;5.90;;
8421;SDS011;4248;48.196;10.924;2023-09-07T02:08:10;9.10;;;5.83;;
8421;SDS011;4248;48.196;10.924;2023-09-07T02:10:36;9.50;;;5.67;;
8421;SDS011;4248;48.196;10.924;2023-09-07T02:13:02;8.90;;;6.20;;
8421;SDS011;4248;48.196;10.924;2023-09-07T02:15:28;13.60;;;6.47;;
8421;SDS011;4248;48.196;10.924;2023-09-07T02:17:54;10.17;;;6.97;;
8421;SDS011;4248;48.196;10.924;2023-09-07T02:20:20;9.87;;;6.90;;
8421;SDS011;4248;48.196;10.924;2023-09-07T02:22:45;9.10;;;6.43;;
8421;SDS011;4248;48.196;10.924;2023-09-07T02:25:11;14.80;;;6.73;;
8421;SDS011;4248;48.196;10.924;2023-09-07T02:27:37;10.37;;;6.10;;
8421;SDS011;4248;48.196;10.924;2023-09-07T02:30:03;8.30;;;6.00;;
8421;SDS011;4248;48.196;10.924;2023-09-07T02:32:30;7.90;;;6.10;;
8421;SDS011;4248;48.196;10.924;2023-09-07T02:34:56;8.20;;;6.17;;
8421;SDS011;4248;48.196;10.924;2023-09-07T02:37:22;9.70;;;6.10;;
8421;SDS011;4248;48.196;10.924;2023-09-07T02:39:48;10.40;;;6.30;;
8421;SDS011;4248;48.196;10.924;2023-09-07T02:42:13;8.67;;;5.27;;
8421;SDS011;4248;48.196;10.924;2023-09-07T02:44:39;11.70;;;6.70;;
8421;SDS011;4248;48.196;10.924;2023-09-07T02:47:05;10.07;;;6.60;;
8421;SDS011;4248;48.196;10.924;2023-09-07T02:49:30;14.13;;;7.00;;
8421;SDS011;4248;48.196;10.924;2023-09-07T02:51:56;10.03;;;5.60;;
8421;SDS011;4248;48.196;10.924;2023-09-07T02:54:22;10.03;;;6.73;;
8421;SDS011;4248;48.196;10.924;2023-09-07T02:56:48;9.50;;;6.80;;
8421;SDS011;4248;48.196;10.924;2023-09-07T02:59:14;10.70;;;6.27;;
8421;SDS011;4248;48.196;10.924;2023-09-07T03:01:39;8.73;;;6.60;;
8421;SDS011;4248;48.196;10.924;2023-09-07T03:04:05;10.83;;;7.07;;
8421;SDS011;4248;48.196;10.924;2023-09-07T03:06:32;11.13;;;7.20;;
8421;SDS011;4248;48.196;10.924;2023-09-07T03:08:58;8.60;;;6.70;;
8421;SDS011;4248;48.196;10.924;2023-09-07T03:11:23;9.67;;;6.80;;
8421;SDS011;4248;48.196;10.924;2023-09-07T03:13:49;9.57;;;7.07;;
8421;SDS011;4248;48.196;10.924;2023-09-07T03:16:15;11.37;;;6.93;;
8421;SDS011;4248;48.196;10.924;2023-09-07T03:18:40;14.43;;;6.70;;
8421;SDS011;4248;48.196;10.924;2023-09-07T03:21:06;8.17;;;6.13;;
8421;SDS011;4248;48.196;10.924;2023-09-07T03:23:32;10.53;;;7.03;;
8421;SDS011;4248;48.196;10.924;2023-09-07T03:25:58;10.83;;;6.83;;
8421;SDS011;4248;48.196;10.924;2023-09-07T03:28:24;10.70;;;7.10;;
8421;SDS011;4248;48.196;10.924;2023-09-07T03:30:50;9.87;;;6.63;;
8421;SDS011;4248;48.196;10.924;2023-09-07T03:33:17;8.13;;;6.00;;
8421;SDS011;4248;48.196;10.924;2023-09-07T03:35:42;10.47;;;6.97;;
8421;SDS011;4248;48.196;10.924;2023-09-07T03:38:08;10.00;;;5.70;;
8421;SDS011;4248;48.196;10.924;2023-09-07T03:40:33;10.10;;;6.50;;
8421;SDS011;4248;48.196;10.924;2023-09-07T03:42:59;8.33;;;6.10;;
8421;SDS011;4248;48.196;10.924;2023-09-07T03:45:25;12.00;;;7.40;;
8421;SDS011;4248;48.196;10.924;2023-09-07T03:47:50;11.20;;;7.20;;
8421;SDS011;4248;48.196;10.924;2023-09-07T03:50:16;8.63;;;6.10;;
8421;SDS011;4248;48.196;10.924;2023-09-07T03:52:41;9.50;;;5.83;;
8421;SDS011;4248;48.196;10.924;2023-09-07T03:55:07;9.10;;;6.23;;
8421;SDS011;4248;48.196;10.924;2023-09-07T03:57:33;10.10;;;5.77;;
8421;SDS011;4248;48.196;10.924;2023-09-07T03:59:59;7.50;;;5.40;;
8421;SDS011;4248;48.196;10.924;2023-09-07T04:02:25;15.53;;;6.00;;
8421;SDS011;4248;48.196;10.924;2023-09-07T04:04:51;15.03;;;7.43;;
8421;SDS011;4248;48.196;10.924;2023-09-07T04:07:18;11.30;;;6.67;;
8421;SDS011;4248;48.196;10.924;2023-09-07T04:09:44;11.53;;;7.97;;
8421;SDS011;4248;48.196;10.924;2023-09-07T04:12:10;14.33;;;7.47;;
8421;SDS011;4248;48.196;10.924;2023-09-07T04:14:36;13.63;;;8.30;;
8421;SDS011;4248;48.196;10.924;2023-09-07T04:17:02;14.63;;;7.57;;
8421;SDS011;4248;48.196;10.924;2023-09-07T04:19:27;13.03;;;8.70;;
8421;SDS011;4248;48.196;10.924;2023-09-07T04:21:53;12.73;;;8.40;;
8421;SDS011;4248;48.196;10.924;2023-09-07T04:24:19;24.90;;;8.50;;
8421;SDS011;4248;48.196;10.924;2023-09-07T04:26:44;13.47;;;8.70;;
8421;SDS011;4248;48.196;10.924;2023-09-07T04:29:10;13.33;;;7.73;;
8421;SDS011;4248;48.196;10.924;2023-09-07T04:31:37;11.70;;;7.70;;
8421;SDS011;4248;48.196;10.924;2023-09-07T04:34:03;11.03;;;6.17;;
8421;SDS011;4248;48.196;10.924;2023-09-07T04:36:28;12.30;;;6.10;;
8421;SDS011;4248;48.196;10.924;2023-09-07T04:38:54;11.23;;;6.50;;
8421;SDS011;4248;48.196;10.924;2023-09-07T04:41:20;12.83;;;5.40;;
8421;SDS011;4248;48.196;10.924;2023-09-07T04:43:45;9.23;;;5.40;;
8421;SDS011;4248;48.196;10.924;2023-09-07T04:46:11;8.70;;;5.90;;
8421;SDS011;4248;48.196;10.924;2023-09-07T04:48:37;10.13;;;6.47;;
8421;SDS011;4248;48.196;10.924;2023-09-07T04:51:05;13.80;;;5.97;;
8421;SDS011;4248;48.196;10.924;2023-09-07T04:53:32;9.03;;;5.57;;
8421;SDS011;4248;48.196;10.924;2023-09-07T04:56:00;9.03;;;5.90;;
8421;SDS011;4248;48.196;10.924;2023-09-07T04:58:26;8.03;;;5.60;;
8421;SDS011;4248;48.196;10.924;2023-09-07T05:00:52;8.40;;;5.30;;
8421;SDS011;4248;48.196;10.924;2023-09-07T05:03:18;8.63;;;5.90;;
8421;SDS011;4248;48.196;10.924;2023-09-07T05:05:44;10.40;;;6.80;;
8421;SDS011;4248;48.196;10.924;2023-09-07T05:08:10;10.27;;;6.70;;
8421;SDS011;4248;48.196;10.924;2023-09-07T05:10:36;14.03;;;7.43;;
8421;SDS011;4248;48.196;10.924;2023-09-07T05:13:02;8.73;;;5.87;;
8421;SDS011;4248;48.196;10.924;2023-09-07T05:15:28;11.23;;;6.77;;
8421;SDS011;4248;48.196;10.924;2023-09-07T05:17:54;18.77;;;7.33;;
8421;SDS011;4248;48.196;10.924;2023-09-07T05:20:20;13.00;;;7.43;;
8421;SDS011;4248;48.196;10.924;2023-09-07T05:22:46;9.40;;;6.70;;
8421;SDS011;4248;48.196;10.924;2023-09-07T05:25:12;14.63;;;9.07;;
8421;SDS011;4248;48.196;10.924;2023-09-07T05:27:38;12.10;;;8.40;;
8421;SDS011;4248;48.196;10.924;2023-09-07T05:30:04;10.60;;;5.73;;
8421;SDS011;4248;48.196;10.924;2023-09-07T05:32:31;14.40;;;5.60;;
8421;SDS011;4248;48.196;10.924;2023-09-07T05:34:56;7.77;;;5.50;;
8421;SDS011;4248;48.196;10.924;2023-09-07T05:37:22;14.33;;;5.40;;
8421;SDS011;4248;48.196;10.924;2023-09-07T05:39:48;7.80;;;5.07;;
8421;SDS011;4248;48.196;10.924;2023-09-07T05:42:16;10.07;;;4.90;;
8421;SDS011;4248;48.196;10.924;2023-09-07T05:44:42;10.00;;;6.03;;
8421;SDS011;4248;48.196;10.924;2023-09-07T05:47:07;10.33;;;4.93;;
8421;SDS011;4248;48.196;10.924;2023-09-07T05:49:33;8.90;;;4.70;;
8421;SDS011;4248;48.196;10.924;2023-09-07T05:51:58;9.10;;;5.30;;
8421;SDS011;4248;48.196;10.924;2023-09-07T05:54:24;7.37;;;5.00;;
8421;SDS011;4248;48.196;10.924;2023-09-07T05:56:49;7.00;;;4.70;;
8421;SDS011;4248;48.196;10.924;2023-09-07T05:59:15;7.90;;;5.43;;
8421;SDS011;4248;48.196;10.924;2023-09-07T06:01:41;13.20;;;5.67;;
8421;SDS011;4248;48.196;10.924;2023-09-07T06:04:06;10.23;;;5.80;;
8421;SDS011;4248;48.196;10.924;2023-09-07T06:06:32;9.70;;;6.50;;
8421;SDS011;4248;48.196;10.924;2023-09-07T06:08:58;9.53;;;6.50;;
8421;SDS011;4248;48.196;10.924;2023-09-07T06:11:24;11.80;;;6.63;;
8421;SDS011;4248;48.196;10.924;2023-09-07T06:13:50;8.67;;;6.00;;
8421;SDS011;4248;48.196;10.924;2023-09-07T06:16:16;11.70;;;6.50;;
8421;SDS011;4248;48.196;10.924;2023-09-07T06:18:42;10.30;;;5.50;;
8421;SDS011;4248;48.196;10.924;2023-09-07T06:21:07;9.67;;;6.50;;
8421;SDS011;4248;48.196;10.924;2023-09-07T06:23:33;12.40;;;6.30;;
8421;SDS011;4248;48.196;10.924;2023-09-07T06:25:59;9.27;;;6.53;;
8421;SDS011;4248;48.196;10.924;2023-09-07T06:28:25;11.07;;;7.63;;
8421;SDS011;4248;48.196;10.924;2023-09-07T06:30:51;12.63;;;7.70;;
8421;SDS011;4248;48.196;10.924;2023-09-07T06:33:17;15.73;;;7.50;;
8421;SDS011;4248;48.196;10.924;2023-09-07T06:35:43;10.20;;;7.67;;
8421;SDS011;4248;48.196;10.924;2023-09-07T06:38:09;15.53;;;7.73;;
8421;SDS011;4248;48.196;10.924;2023-09-07T06:40:34;14.77;;;8.90;;
8421;SDS011;4248;48.196;10.924;2023-09-07T06:43:00;16.50;;;9.00;;
8421;SDS011;4248;48.196;10.924;2023-09-07T06:45:30;16.73;;;8.33;;
8421;SDS011;4248;48.196;10.924;2023-09-07T06:47:59;13.13;;;9.53;;
8421;SDS011;4248;48.196;10.924;2023-09-07T06:50:24;12.97;;;9.30;;
8421;SDS011;4248;48.196;10.924;2023-09-07T06:52:50;16.57;;;9.30;;
8421;SDS011;4248;48.196;10.924;2023-09-07T06:55:16;19.83;;;9.93;;
8421;SDS011;4248;48.196;10.924;2023-09-07T06:57:42;13.63;;;10.10;;
8421;SDS011;4248;48.196;10.924;2023-09-07T07:00:07;15.87;;;9.83;;
8421;SDS011;4248;48.196;10.924;2023-09-07T07:02:33;20.50;;;10.17;;
8421;SDS011;4248;48.196;10.924;2023-09-07T07:04:59;12.63;;;10.00;;
8421;SDS011;4248;48.196;10.924;2023-09-07T07:07:25;15.07;;;10.80;;
8421;SDS011;4248;48.196;10.924;2023-09-07T07:09:51;15.87;;;9.80;;
8421;SDS011;4248;48.196;10.924;2023-09-07T07:12:17;17.93;;;12.10;;
8421;SDS011;4248;48.196;10.924;2023-09-07T07:14:44;22.13;;;11.83;;
8421;SDS011;4248;48.196;10.924;2023-09-07T07:17:09;22.93;;;10.70;;
8421;SDS011;4248;48.196;10.924;2023-09-07T07:19:35;15.93;;;11.70;;
8421;SDS011;4248;48.196;10.924;2023-09-07T07:22:00;15.63;;;9.53;;
8421;SDS011;4248;48.196;10.924;2023-09-07T07:24:26;18.43;;;11.47;;
8421;SDS011;4248;48.196;10.924;2023-09-07T07:26:51;18.47;;;10.67;;
8421;SDS011;4248;48.196;10.924;2023-09-07T07:29:17;14.80;;;10.97;;
8421;SDS011;4248;48.196;10.924;2023-09-07T07:31:43;14.30;;;9.53;;
8421;SDS011;4248;48.196;10.924;2023-09-07T07:34:08;18.67;;;10.43;;
8421;SDS011;4248;48.196;10.924;2023-09-07T07:36:35;14.87;;;11.20;;
8421;SDS011;4248;48.196;10.924;2023-09-07T07:39:00;18.03;;;10.83;;
8421;SDS011;4248;48.196;10.924;2023-09-07T07:41:28;27.70;;;15.03;;
8421;SDS011;4248;48.196;10.924;2023-09-07T07:43:53;15.53;;;10.60;;
8421;SDS011;4248;48.196;10.924;2023-09-07T07:46:19;17.20;;;11.70;;
8421;SDS011;4248;48.196;10.924;2023-09-07T07:48:45;21.93;;;12.07;;
8421;SDS011;4248;48.196;10.924;2023-09-07T07:51:10;20.73;;;11.00;;
8421;SDS011;4248;48.196;10.924;2023-09-07T07:53:36;21.00;;;12.33;;
8421;SDS011;4248;48.196;10.924;2023-09-07T07:56:01;20.90;;;11.53;;
8421;SDS011;4248;48.196;10.924;2023-09-07T07:58:28;21.43;;;10.30;;
8421;SDS011;4248;48.196;10.924;2023-09-07T08:00:53;12.63;;;10.57;;
8421;SDS011;4248;48.196;10.924;2023-09-07T08:03:22;14.10;;;9.93;;
8421;SDS011;4248;48.196;10.924;2023-09-07T08:05:48;14.63;;;9.50;;
8421;SDS011;4248;48.196;10.924;2023-09-07T08:08:14;15.30;;;10.90;;
8421;SDS011;4248;48.196;10.924;2023-09-07T08:10:39;15.63;;;10.90;;
8421;SDS011;4248;48.196;10.924;2023-09-07T08:13:06;14.50;;;11.00;;
8421;SDS011;4248;48.196;10.924;2023-09-07T08:15:32;14.90;;;10.90;;
8421;SDS011;4248;48.196;10.924;2023-09-07T08:17:59;15.47;;;11.37;;
8421;SDS011;4248;48.196;10.924;2023-09-07T08:20:25;19.57;;;10.80;;
8421;SDS011;4248;48.196;10.924;2023-09-07T08:22:51;17.13;;;11.40;;
8421;SDS011;4248;48.196;10.924;2023-09-07T08:25:17;21.13;;;10.90;;
8421;SDS011;4248;48.196;10.924;2023-09-07T08:27:43;19.77;;;12.83;;
8421;SDS011;4248;48.196;10.924;2023-09-07T08:30:14;13.57;;;10.13;;
8421;SDS011;4248;48.196;10.924;2023-09-07T08:32:42;19.87;;;11.60;;
8421;SDS011;4248;48.196;10.924;2023-09-07T08:35:09;12.93;;;9.97;;
8421;SDS011;4248;48.196;10.924;2023-09-07T08:37:37;13.00;;;9.80;;
8421;SDS011;4248;48.196;10.924;2023-09-07T08:40:06;15.17;;;11.03;;
8421;SDS011;4248;48.196;10.924;2023-09-07T08:42:35;16.80;;;10.13;;
8421;SDS011;4248;48.196;10.924;2023-09-07T08:45:04;16.30;;;10.03;;
8421;SDS011;4248;48.196;10.924;2023-09-07T08:47:33;11.97;;;9.23;;
8421;SDS011;4248;48.196;10.924;2023-09-07T08:50:01;15.50;;;10.30;;
8421;SDS011;4248;48.196;10.924;2023-09-07T08:52:27;18.87;;;9.67;;
8421;SDS011;4248;48.196;10.924;2023-09-07T08:54:53;15.47;;;9.80;;
8421;SDS011;4248;48.196;10.924;2023-09-07T08:57:20;14.43;;;9.57;;
8421;SDS011;4248;48.196;10.924;2023-09-07T08:59:47;16.20;;;10.67;;
8421;SDS011;4248;48.196;10.924;2023-09-07T09:02:14;14.07;;;9.80;;
8421;SDS011;4248;48.196;10.924;2023-09-07T09:04:41;14.20;;;9.97;;
8421;SDS011;4248;48.196;10.924;2023-09-07T09:07:07;14.97;;;10.67;;
8421;SDS011;4248;48.196;10.924;2023-09-07T09:09:32;14.37;;;8.97;;
8421;SDS011;4248;48.196;10.924;2023-09-07T09:12:08;14.47;;;9.67;;
8421;SDS011;4248;48.196;10.924;2023-09-07T09:14:34;13.93;;;10.47;;
8421;SDS011;4248;48.196;10.924;2023-09-07T09:17:00;10.40;;;7.40;;
8421;SDS011;4248;48.196;10.924;2023-09-07T09:19:35;15.47;;;9.40;;
8421;SDS011;4248;48.196;10.924;2023-09-07T09:22:01;13.67;;;8.50;;
8421;SDS011;4248;48.196;10.924;2023-09-07T09:24:31;13.73;;;9.40;;
8421;SDS011;4248;48.196;10.924;2023-09-07T09:26:57;13.67;;;10.50;;
8421;SDS011;4248;48.196;10.924;2023-09-07T09:29:23;14.23;;;9.70;;
8421;SDS011;4248;48.196;10.924;2023-09-07T09:31:49;13.77;;;7.87;;
8421;SDS011;4248;48.196;10.924;2023-09-07T09:34:15;13.87;;;9.30;;
8421;SDS011;4248;48.196;10.924;2023-09-07T09:36:42;11.70;;;8.27;;
8421;SDS011;4248;48.196;10.924;2023-09-07T09:39:08;14.37;;;8.90;;
8421;SDS011;4248;48.196;10.924;2023-09-07T09:41:34;11.50;;;7.67;;
8421;SDS011;4248;48.196;10.924;2023-09-07T09:44:04;11.80;;;7.80;;
8421;SDS011;4248;48.196;10.924;2023-09-07T09:46:31;14.30;;;9.40;;
8421;SDS011;4248;48.196;10.924;2023-09-07T09:48:57;13.27;;;9.37;;
8421;SDS011;4248;48.196;10.924;2023-09-07T09:51:23;10.47;;;8.60;;
8421;SDS011;4248;48.196;10.924;2023-09-07T09:53:50;19.30;;;9.03;;
8421;SDS011;4248;48.196;10.924;2023-09-07T09:56:18;12.10;;;8.83;;
8421;SDS011;4248;48.196;10.924;2023-09-07T09:58:45;11.60;;;8.50;;
8421;SDS011;4248;48.196;10.924;2023-09-07T10:01:11;12.60;;;7.70;;
8421;SDS011;4248;48.196;10.924;2023-09-07T10:03:40;12.37;;;7.60;;
8421;SDS011;4248;48.196;10.924;2023-09-07T10:06:17;9.73;;;6.20;;
8421;SDS011;4248;48.196;10.924;2023-09-07T10:08:58;8.97;;;6.43;;
8421;SDS011;4248;48.196;10.924;2023-09-07T10:11:32;16.13;;;8.73;;
8421;SDS011;4248;48.196;10.924;2023-09-07T10:14:02;11.20;;;6.77;;
8421;SDS011;4248;48.196;10.924;2023-09-07T10:16:40;11.93;;;7.87;;
8421;SDS011;4248;48.196;10.924;2023-09-07T10:21:42;10.30;;;7.30;;
8421;SDS011;4248;48.196;10.924;2023-09-07T10:24:07;15.07;;;7.77;;
8421;SDS011;4248;48.196;10.924;2023-09-07T10:26:33;9.93;;;7.00;;
8421;SDS011;4248;48.196;10.924;2023-09-07T10:29:02;9.83;;;7.13;;
8421;SDS011;4248;48.196;10.924;2023-09-07T10:31:29;12.33;;;6.20;;
8421;SDS011;4248;48.196;10.924;2023-09-07T10:34:07;13.53;;;8.10;;
8421;SDS011;4248;48.196;10.924;2023-09-07T10:36:37;11.57;;;7.53;;
8421;SDS011;4248;48.196;10.924;2023-09-07T10:39:03;14.60;;;8.33;;
8421;SDS011;4248;48.196;10.924;2023-09-07T10:41:42;12.13;;;7.83;;
8421;SDS011;4248;48.196;10.924;2023-09-07T10:44:08;12.37;;;7.20;;
8421;SDS011;4248;48.196;10.924;2023-09-07T10:46:35;10.37;;;7.60;;
8421;SDS011;4248;48.196;10.924;2023-09-07T10:49:03;12.83;;;8.00;;
8421;SDS011;4248;48.196;10.924;2023-09-07T10:51:31;20.70;;;7.23;;
8421;SDS011;4248;48.196;10.924;2023-09-07T10:54:12;10.93;;;6.37;;
8421;SDS011;4248;48.196;10.924;2023-09-07T10:56:39;10.43;;;6.57;;
8421;SDS011;4248;48.196;10.924;2023-09-07T10:59:04;13.93;;;8.17;;
8421;SDS011;4248;48.196;10.924;2023-09-07T11:01:30;10.50;;;6.70;;
8421;SDS011;4248;48.196;10.924;2023-09-07T11:03:56;8.77;;;6.30;;
8421;SDS011;4248;48.196;10.924;2023-09-07T11:06:21;9.40;;;6.20;;
8421;SDS011;4248;48.196;10.924;2023-09-07T11:08:47;9.50;;;6.10;;
8421;SDS011;4248;48.196;10.924;2023-09-07T11:11:13;20.23;;;5.90;;
8421;SDS011;4248;48.196;10.924;2023-09-07T11:13:39;10.00;;;6.03;;
8421;SDS011;4248;48.196;10.924;2023-09-07T11:16:07;11.80;;;7.00;;
8421;SDS011;4248;48.196;10.924;2023-09-07T11:18:34;9.93;;;6.50;;
8421;SDS011;4248;48.196;10.924;2023-09-07T11:21:02;9.07;;;6.50;;
8421;SDS011;4248;48.196;10.924;2023-09-07T11:23:32;8.67;;;6.20;;
8421;SDS011;4248;48.196;10.924;2023-09-07T11:26:05;14.90;;;6.57;;
8421;SDS011;4248;48.196;10.924;2023-09-07T11:28:31;9.43;;;6.47;;
8421;SDS011;4248;48.196;10.924;2023-09-07T11:30:58;10.13;;;6.07;;
8421;SDS011;4248;48.196;10.924;2023-09-07T11:33:24;17.70;;;7.20;;
8421;SDS011;4248;48.196;10.924;2023-09-07T11:35:50;8.23;;;6.27;;
8421;SDS011;4248;48.196;10.924;2023-09-07T11:38:17;11.50;;;7.13;;
8421;SDS011;4248;48.196;10.924;2023-09-07T11:40:43;10.27;;;7.17;;
8421;SDS011;4248;48.196;10.924;2023-09-07T11:43:12;13.13;;;6.70;;
8421;SDS011;4248;48.196;10.924;2023-09-07T11:45:39;15.80;;;6.10;;
8421;SDS011;4248;48.196;10.924;2023-09-07T11:48:05;14.80;;;5.93;;
8421;SDS011;4248;48.196;10.924;2023-09-07T11:50:34;9.47;;;6.20;;
8421;SDS011;4248;48.196;10.924;2023-09-07T11:52:59;14.13;;;7.10;;
8421;SDS011;4248;48.196;10.924;2023-09-07T11:55:25;8.40;;;6.73;;
8421;SDS011;4248;48.196;10.924;2023-09-07T11:57:51;10.47;;;5.90;;
8421;SDS011;4248;48.196;10.924;2023-09-07T12:00:16;13.10;;;6.40;;
8421;SDS011;4248;48.196;10.924;2023-09-07T12:02:42;9.70;;;5.80;;
8421;SDS011;4248;48.196;10.924;2023-09-07T12:05:08;13.57;;;6.10;;
8421;SDS011;4248;48.196;10.924;2023-09-07T12:07:38;17.13;;;5.63;;
8421;SDS011;4248;48.196;10.924;2023-09-07T12:10:03;9.93;;;5.80;;
8421;SDS011;4248;48.196;10.924;2023-09-07T12:12:29;9.27;;;7.00;;
8421;SDS011;4248;48.196;10.924;2023-09-07T12:14:55;9.23;;;6.23;;
8421;SDS011;4248;48.196;10.924;2023-09-07T12:17:21;9.10;;;5.70;;
8421;SDS011;4248;48.196;10.924;2023-09-07T12:19:47;10.97;;;5.90;;
8421;SDS011;4248;48.196;10.924;2023-09-07T12:22:14;11.13;;;6.63;;
8421;SDS011;4248;48.196;10.924;2023-09-07T12:24:40;10.03;;;5.50;;
8421;SDS011;4248;48.196;10.924;2023-09-07T12:27:05;8.10;;;5.80;;
8421;SDS011;4248;48.196;10.924;2023-09-07T12:29:31;29.27;;;6.07;;
8421;SDS011;4248;48.196;10.924;2023-09-07T12:31:56;7.80;;;5.30;;
8421;SDS011;4248;48.196;10.924;2023-09-07T12:34:22;8.63;;;5.80;;
8421;SDS011;4248;48.196;10.924;2023-09-07T12:36:48;8.87;;;4.97;;
8421;SDS011;4248;48.196;10.924;2023-09-07T12:39:14;8.30;;;4.90;;
8421;SDS011;4248;48.196;10.924;2023-09-07T12:41:39;7.87;;;5.27;;
8421;SDS011;4248;48.196;10.924;2023-09-07T12:44:05;8.37;;;5.10;;
8421;SDS011;4248;48.196;10.924;2023-09-07T12:46:31;10.43;;;5.57;;
8421;SDS011;4248;48.196;10.924;2023-09-07T12:48:57;8.60;;;5.40;;
8421;SDS011;4248;48.196;10.924;2023-09-07T12:51:23;9.93;;;5.30;;
8421;SDS011;4248;48.196;10.924;2023-09-07T12:53:48;9.53;;;5.50;;
8421;SDS011;4248;48.196;10.924;2023-09-07T12:56:14;10.43;;;5.37;;
8421;SDS011;4248;48.196;10.924;2023-09-07T12:58:40;10.03;;;5.40;;
8421;SDS011;4248;48.196;10.924;2023-09-07T13:01:06;11.60;;;4.97;;
8421;SDS011;4248;48.196;10.924;2023-09-07T13:03:35;7.13;;;4.50;;
8421;SDS011;4248;48.196;10.924;2023-09-07T13:06:01;6.20;;;4.57;;
8421;SDS011;4248;48.196;10.924;2023-09-07T13:08:28;14.07;;;5.33;;
8421;SDS011;4248;48.196;10.924;2023-09-07T13:10:54;12.03;;;4.53;;
8421;SDS011;4248;48.196;10.924;2023-09-07T13:13:20;7.17;;;4.80;;
8421;SDS011;4248;48.196;10.924;2023-09-07T13:15:47;8.90;;;4.60;;
8421;SDS011;4248;48.196;10.924;2023-09-07T13:18:13;10.07;;;4.80;;
8421;SDS011;4248;48.196;10.924;2023-09-07T13:20:39;7.30;;;4.97;;
8421;SDS011;4248;48.196;10.924;2023-09-07T13:23:05;7.37;;;4.17;;
8421;SDS011;4248;48.196;10.924;2023-09-07T13:25:31;6.03;;;4.67;;
8421;SDS011;4248;48.196;10.924;2023-09-07T13:27:56;6.77;;;4.23;;
8421;SDS011;4248;48.196;10.924;2023-09-07T13:30:22;9.80;;;4.60;;
8421;SDS011;4248;48.196;10.924;2023-09-07T13:32:48;7.77;;;4.73;;
8421;SDS011;4248;48.196;10.924;2023-09-07T13:35:15;5.53;;;3.90;;
8421;SDS011;4248;48.196;10.924;2023-09-07T13:37:40;8.30;;;4.33;;
8421;SDS011;4248;48.196;10.924;2023-09-07T13:40:06;8.10;;;4.83;;
8421;SDS011;4248;48.196;10.924;2023-09-07T13:42:32;5.30;;;3.67;;
8421;SDS011;4248;48.196;10.924;2023-09-07T13:44:58;8.20;;;4.20;;
8421;SDS011;4248;48.196;10.924;2023-09-07T13:47:24;7.73;;;4.23;;
8421;SDS011;4248;48.196;10.924;2023-09-07T13:49:50;13.23;;;4.50;;
8421;SDS011;4248;48.196;10.924;2023-09-07T13:52:15;6.73;;;4.07;;
8421;SDS011;4248;48.196;10.924;2023-09-07T13:54:41;5.77;;;3.73;;
8421;SDS011;4248;48.196;10.924;2023-09-07T13:57:06;5.80;;;3.90;;
8421;SDS011;4248;48.196;10.924;2023-09-07T13:59:33;6.23;;;3.93;;
8421;SDS011;4248;48.196;10.924;2023-09-07T14:01:59;7.50;;;4.10;;
8421;SDS011;4248;48.196;10.924;2023-09-07T14:04:25;5.60;;;3.70;;
8421;SDS011;4248;48.196;10.924;2023-09-07T14:06:51;7.40;;;4.17;;
8421;SDS011;4248;48.196;10.924;2023-09-07T14:09:17;6.10;;;3.43;;
8421;SDS011;4248;48.196;10.924;2023-09-07T14:11:43;6.47;;;4.00;;
8421;SDS011;4248;48.196;10.924;2023-09-07T14:14:09;7.07;;;3.90;;
8421;SDS011;4248;48.196;10.924;2023-09-07T14:16:35;6.80;;;4.23;;
8421;SDS011;4248;48.196;10.924;2023-09-07T14:19:01;6.20;;;3.60;;
8421;SDS011;4248;48.196;10.924;2023-09-07T14:21:27;10.50;;;4.40;;
8421;SDS011;4248;48.196;10.924;2023-09-07T14:23:52;8.37;;;3.80;;
8421;SDS011;4248;48.196;10.924;2023-09-07T14:26:18;7.60;;;4.13;;
8421;SDS011;4248;48.196;10.924;2023-09-07T14:28:44;6.87;;;4.20;;
8421;SDS011;4248;48.196;10.924;2023-09-07T14:31:10;7.20;;;3.93;;
8421;SDS011;4248;48.196;10.924;2023-09-07T14:33:37;12.63;;;4.57;;
8421;SDS011;4248;48.196;10.924;2023-09-07T14:36:04;6.43;;;3.97;;
8421;SDS011;4248;48.196;10.924;2023-09-07T14:38:32;8.70;;;4.10;;
8421;SDS011;4248;48.196;10.924;2023-09-07T14:41:04;10.00;;;3.70;;
8421;SDS011;4248;48.196;10.924;2023-09-07T14:43:30;7.93;;;3.80;;
8421;SDS011;4248;48.196;10.924;2023-09-07T14:45:56;5.07;;;3.57;;
8421;SDS011;4248;48.196;10.924;2023-09-07T14:48:21;6.30;;;3.90;;
8421;SDS011;4248;48.196;10.924;2023-09-07T14:50:47;8.00;;;4.27;;